sensor_id;sensor_type;location;lat;lon;timestamp;pressure;altitude;pressure_sealevel;temperature;humidity
49515;BME280;35415;47.870;16.058;2023-02-19T00:01:50;97455.66;;;12.61;68.90
49515;BME280;35415;47.870;16.058;2023-02-19T00:04:22;97438.72;;;12.45;69.51
49515;BME280;35415;47.870;16.058;2023-02-19T00:06:49;97461.63;;;12.53;70.52
49515;BME280;35415;47.870;16.058;2023-02-19T00:09:20;97449.78;;;12.39;70.16
49515;BME280;35415;47.870;16.058;2023-02-19T00:11:47;97454.91;;;12.35;70.59
49515;BME280;35415;47.870;16.058;2023-02-19T00:14:16;97477.81;;;12.43;70.87
49515;BME280;35415;47.870;16.058;2023-02-19T00:16:46;97449.28;;;12.26;71.47
49515;BME280;35415;47.870;16.058;2023-02-19T00:19:15;97464.13;;;12.29;71.38
49515;BME280;35415;47.870;16.058;2023-02-19T00:21:50;97416.19;;;12.00;71.39
49515;BME280;35415;47.870;16.058;2023-02-19T00:24:21;97474.06;;;12.39;71.65
49515;BME280;35415;47.870;16.058;2023-02-19T00:26:48;97472.22;;;12.29;72.40
49515;BME280;35415;47.870;16.058;2023-02-19T00:29:17;97489.72;;;12.37;72.37
49515;BME280;35415;47.870;16.058;2023-02-19T00:31:47;97453.91;;;12.05;73.57
49515;BME280;35415;47.870;16.058;2023-02-19T00:34:15;97485.44;;;12.20;73.41
49515;BME280;35415;47.870;16.058;2023-02-19T00:36:42;97499.44;;;12.22;73.60
49515;BME280;35415;47.870;16.058;2023-02-19T00:39:13;97449.59;;;11.89;74.53
49515;BME280;35415;47.870;16.058;2023-02-19T00:41:46;97497.28;;;12.24;74.72
49515;BME280;35415;47.870;16.058;2023-02-19T00:44:14;97475.22;;;12.02;75.28
49515;BME280;35415;47.870;16.058;2023-02-19T00:46:44;97499.19;;;12.19;74.78
49515;BME280;35415;47.870;16.058;2023-02-19T00:49:16;97486.53;;;12.04;75.40
49515;BME280;35415;47.870;16.058;2023-02-19T00:51:47;97480.09;;;11.95;75.56
49515;BME280;35415;47.870;16.058;2023-02-19T00:54:17;97468.75;;;11.83;75.32
49515;BME280;35415;47.870;16.058;2023-02-19T00:56:48;97464.72;;;11.80;76.26
49515;BME280;35415;47.870;16.058;2023-02-19T00:59:17;97483.03;;;11.93;76.36
49515;BME280;35415;47.870;16.058;2023-02-19T01:01:46;97445.81;;;11.65;76.80
49515;BME280;35415;47.870;16.058;2023-02-19T01:04:14;97504.06;;;12.01;77.02
49515;BME280;35415;47.870;16.058;2023-02-19T01:06:46;97470.38;;;11.84;76.88
49515;BME280;35415;47.870;16.058;2023-02-19T01:09:15;97484.38;;;11.91;77.78
49515;BME280;35415;47.870;16.058;2023-02-19T01:11:46;97460.63;;;11.67;77.07
49515;BME280;35415;47.870;16.058;2023-02-19T01:14:13;97493.84;;;11.93;77.05
49515;BME280;35415;47.870;16.058;2023-02-19T01:16:40;97481.69;;;11.86;78.06
49515;BME280;35415;47.870;16.058;2023-02-19T01:19:07;97419.69;;;11.50;77.54
49515;BME280;35415;47.870;16.058;2023-02-19T01:21:35;97456.59;;;11.70;78.78
49515;BME280;35415;47.870;16.058;2023-02-19T01:24:02;97473.56;;;11.75;78.42
49515;BME280;35415;47.870;16.058;2023-02-19T01:26:32;97461.97;;;11.75;78.65
49515;BME280;35415;47.870;16.058;2023-02-19T01:28:59;97479.78;;;11.76;79.71
49515;BME280;35415;47.870;16.058;2023-02-19T01:31:27;97454.72;;;11.65;79.24
49515;BME280;35415;47.870;16.058;2023-02-19T01:33:56;97436.94;;;11.54;80.67
49515;BME280;35415;47.870;16.058;2023-02-19T01:36:25;97459.03;;;11.66;80.25
49515;BME280;35415;47.870;16.058;2023-02-19T01:39:18;97454.72;;;11.60;80.32
49515;BME280;35415;47.870;16.058;2023-02-19T01:41:50;97471.44;;;11.78;80.59
49515;BME280;35415;47.870;16.058;2023-02-19T01:47:21;97434.78;;;11.46;81.51
49515;BME280;35415;47.870;16.058;2023-02-19T01:49:51;97470.63;;;11.67;81.58
49515;BME280;35415;47.870;16.058;2023-02-19T01:52:22;97476.81;;;11.67;82.59
49515;BME280;35415;47.870;16.058;2023-02-19T01:54:52;97445.81;;;11.55;82.15
49515;BME280;35415;47.870;16.058;2023-02-19T01:57:24;97465.22;;;11.62;82.53
49515;BME280;35415;47.870;16.058;2023-02-19T01:59:55;97450.41;;;11.49;82.11
49515;BME280;35415;47.870;16.058;2023-02-19T02:02:24;97442.84;;;11.56;82.73
49515;BME280;35415;47.870;16.058;2023-02-19T02:04:53;97435.06;;;11.44;83.23
49515;BME280;35415;47.870;16.058;2023-02-19T02:07:22;97437.75;;;11.44;84.85
49515;BME280;35415;47.870;16.058;2023-02-19T02:10:06;97407.84;;;11.31;85.43
49515;BME280;35415;47.870;16.058;2023-02-19T02:12:49;97387.91;;;11.22;84.65
49515;BME280;35415;47.870;16.058;2023-02-19T02:15:18;97360.41;;;11.04;85.53
49515;BME280;35415;47.870;16.058;2023-02-19T02:17:54;97375.50;;;11.05;87.20
49515;BME280;35415;47.870;16.058;2023-02-19T02:20:32;97394.63;;;11.19;86.25
49515;BME280;35415;47.870;16.058;2023-02-19T02:23:08;97381.41;;;11.02;85.81
49515;BME280;35415;47.870;16.058;2023-02-19T02:26:09;97427.50;;;11.47;85.66
49515;BME280;35415;47.870;16.058;2023-02-19T02:31:59;97395.69;;;11.18;87.10
49515;BME280;35415;47.870;16.058;2023-02-19T02:34:35;97430.44;;;11.40;88.68
49515;BME280;35415;47.870;16.058;2023-02-19T02:37:07;97422.63;;;11.38;88.32
49515;BME280;35415;47.870;16.058;2023-02-19T02:39:37;97398.41;;;11.13;88.80
49515;BME280;35415;47.870;16.058;2023-02-19T02:42:08;97403.25;;;11.26;88.14
49515;BME280;35415;47.870;16.058;2023-02-19T02:44:54;97407.84;;;11.31;88.22
49515;BME280;35415;47.870;16.058;2023-02-19T02:47:42;97407.03;;;11.30;87.09
49515;BME280;35415;47.870;16.058;2023-02-19T02:50:14;97373.34;;;11.02;89.60
49515;BME280;35415;47.870;16.058;2023-02-19T02:52:49;97409.19;;;11.28;88.50
49515;BME280;35415;47.870;16.058;2023-02-19T02:55:38;97401.34;;;11.22;89.42
49515;BME280;35415;47.870;16.058;2023-02-19T02:58:08;97388.72;;;11.12;89.07
49515;BME280;35415;47.870;16.058;2023-02-19T03:00:37;97384.66;;;11.09;89.13
49515;BME280;35415;47.870;16.058;2023-02-19T03:03:41;97387.59;;;11.08;89.10
49515;BME280;35415;47.870;16.058;2023-02-19T03:06:10;97399.47;;;11.17;88.86
49515;BME280;35415;47.870;16.058;2023-02-19T03:08:43;97412.66;;;11.24;89.55
49515;BME280;35415;47.870;16.058;2023-02-19T03:11:17;97416.69;;;11.16;89.08
49515;BME280;35415;47.870;16.058;2023-02-19T03:14:05;97401.63;;;11.15;89.29
49515;BME280;35415;47.870;16.058;2023-02-19T03:16:54;97412.66;;;11.13;91.30
49515;BME280;35415;47.870;16.058;2023-02-19T03:19:46;97411.59;;;11.20;90.29
49515;BME280;35415;47.870;16.058;2023-02-19T03:22:18;97412.13;;;11.17;90.81
49515;BME280;35415;47.870;16.058;2023-02-19T03:24:52;97407.81;;;11.15;90.92
49515;BME280;35415;47.870;16.058;2023-02-19T03:27:40;97367.13;;;10.87;92.97
49515;BME280;35415;47.870;16.058;2023-02-19T03:30:12;97415.63;;;11.12;92.77
49515;BME280;35415;47.870;16.058;2023-02-19T03:32:45;97397.06;;;11.10;92.37
49515;BME280;35415;47.870;16.058;2023-02-19T03:35:20;97410.50;;;11.10;92.37
49515;BME280;35415;47.870;16.058;2023-02-19T03:37:53;97376.00;;;10.87;91.65
49515;BME280;35415;47.870;16.058;2023-02-19T03:40:28;97365.50;;;10.80;90.79
49515;BME280;35415;47.870;16.058;2023-02-19T03:43:02;97382.75;;;10.95;90.82
49515;BME280;35415;47.870;16.058;2023-02-19T03:45:42;97395.13;;;11.06;93.59
49515;BME280;35415;47.870;16.058;2023-02-19T03:48:22;97407.00;;;11.05;93.40
49515;BME280;35415;47.870;16.058;2023-02-19T03:51:03;97418.81;;;11.04;93.79
49515;BME280;35415;47.870;16.058;2023-02-19T03:53:35;97383.28;;;10.92;92.79
49515;BME280;35415;47.870;16.058;2023-02-19T03:56:09;97391.38;;;11.02;93.71
49515;BME280;35415;47.870;16.058;2023-02-19T03:58:44;97397.56;;;10.97;92.56
49515;BME280;35415;47.870;16.058;2023-02-19T04:01:20;97333.44;;;10.53;92.53
49515;BME280;35415;47.870;16.058;2023-02-19T04:03:55;97370.88;;;10.80;92.91
49515;BME280;35415;47.870;16.058;2023-02-19T04:06:27;97345.03;;;10.59;95.63
49515;BME280;35415;47.870;16.058;2023-02-19T04:08:59;97370.31;;;10.68;94.93
49515;BME280;35415;47.870;16.058;2023-02-19T04:11:29;97353.31;;;10.58;94.20
49515;BME280;35415;47.870;16.058;2023-02-19T04:17:00;97374.88;;;10.68;93.44
49515;BME280;35415;47.870;16.058;2023-02-19T04:19:32;97407.50;;;10.92;93.78
49515;BME280;35415;47.870;16.058;2023-02-19T04:22:04;97369.50;;;10.68;93.60
49515;BME280;35415;47.870;16.058;2023-02-19T04:24:36;97339.59;;;10.49;94.70
49515;BME280;35415;47.870;16.058;2023-02-19T04:27:05;97379.78;;;10.76;97.29
49515;BME280;35415;47.870;16.058;2023-02-19T04:29:35;97383.81;;;10.78;98.21
49515;BME280;35415;47.870;16.058;2023-02-19T04:32:06;97378.13;;;10.75;97.39
49515;BME280;35415;47.870;16.058;2023-02-19T04:34:33;97371.13;;;10.69;97.72
49515;BME280;35415;47.870;16.058;2023-02-19T04:37:02;97385.41;;;10.79;98.10
49515;BME280;35415;47.870;16.058;2023-02-19T04:39:29;97368.66;;;10.52;97.62
49515;BME280;35415;47.870;16.058;2023-02-19T04:41:57;97351.44;;;10.53;97.12
49515;BME280;35415;47.870;16.058;2023-02-19T04:44:24;97372.72;;;10.60;97.67
49515;BME280;35415;47.870;16.058;2023-02-19T04:46:51;97361.41;;;10.58;99.39
49515;BME280;35415;47.870;16.058;2023-02-19T04:49:21;97352.78;;;10.45;98.88
49515;BME280;35415;47.870;16.058;2023-02-19T04:51:49;97353.59;;;10.56;98.58
49515;BME280;35415;47.870;16.058;2023-02-19T04:54:21;97297.53;;;10.17;98.64
49515;BME280;35415;47.870;16.058;2023-02-19T04:56:48;97383.78;;;10.68;98.61
49515;BME280;35415;47.870;16.058;2023-02-19T04:59:15;97357.66;;;10.59;98.86
49515;BME280;35415;47.870;16.058;2023-02-19T05:01:46;97361.16;;;10.64;99.35
49515;BME280;35415;47.870;16.058;2023-02-19T05:04:13;97354.16;;;10.63;100.00
49515;BME280;35415;47.870;16.058;2023-02-19T05:06:41;97346.88;;;10.48;100.00
49515;BME280;35415;47.870;16.058;2023-02-19T05:09:08;97367.34;;;10.60;99.94
49515;BME280;35415;47.870;16.058;2023-02-19T05:11:37;97372.16;;;10.58;99.36
49515;BME280;35415;47.870;16.058;2023-02-19T05:14:04;97360.84;;;10.55;99.13
49515;BME280;35415;47.870;16.058;2023-02-19T05:16:32;97330.19;;;10.41;100.00
49515;BME280;35415;47.870;16.058;2023-02-19T05:18:59;97346.59;;;10.50;100.00
49515;BME280;35415;47.870;16.058;2023-02-19T05:21:26;97354.41;;;10.46;100.00
49515;BME280;35415;47.870;16.058;2023-02-19T05:26:59;97341.44;;;10.38;99.83
49515;BME280;35415;47.870;16.058;2023-02-19T05:29:29;97334.19;;;10.34;99.69
49515;BME280;35415;47.870;16.058;2023-02-19T05:31:57;97335.25;;;10.38;100.00
49515;BME280;35415;47.870;16.058;2023-02-19T05:34:24;97309.63;;;10.20;100.00
49515;BME280;35415;47.870;16.058;2023-02-19T05:36:52;97295.38;;;10.09;100.00
49515;BME280;35415;47.870;16.058;2023-02-19T05:39:19;97283.81;;;10.09;99.95
49515;BME280;35415;47.870;16.058;2023-02-19T05:41:50;97264.13;;;9.93;100.00
49515;BME280;35415;47.870;16.058;2023-02-19T05:47:23;97317.78;;;10.35;99.57
49515;BME280;35415;47.870;16.058;2023-02-19T05:49:50;97252.00;;;9.85;99.33
49515;BME280;35415;47.870;16.058;2023-02-19T05:52:17;97317.25;;;10.33;99.29
49515;BME280;35415;47.870;16.058;2023-02-19T05:54:45;97290.28;;;10.13;100.00
49515;BME280;35415;47.870;16.058;2023-02-19T05:57:12;97300.75;;;10.14;99.95
49515;BME280;35415;47.870;16.058;2023-02-19T05:59:40;97276.25;;;10.01;100.00
49515;BME280;35415;47.870;16.058;2023-02-19T06:02:08;97296.13;;;10.05;100.00
49515;BME280;35415;47.870;16.058;2023-02-19T06:04:37;97325.03;;;10.24;100.00
49515;BME280;35415;47.870;16.058;2023-02-19T06:07:05;97281.59;;;9.95;100.00
49515;BME280;35415;47.870;16.058;2023-02-19T06:09:32;97313.91;;;10.11;100.00
49515;BME280;35415;47.870;16.058;2023-02-19T06:11:59;97247.16;;;9.82;100.00
49515;BME280;35415;47.870;16.058;2023-02-19T06:14:27;97255.81;;;9.94;100.00
49515;BME280;35415;47.870;16.058;2023-02-19T06:16:56;97265.75;;;9.99;100.00
49515;BME280;35415;47.870;16.058;2023-02-19T06:19:23;97305.38;;;10.24;100.00
49515;BME280;35415;47.870;16.058;2023-02-19T06:21:52;97305.63;;;10.22;100.00
49515;BME280;35415;47.870;16.058;2023-02-19T06:24:21;97279.16;;;9.89;100.00
49515;BME280;35415;47.870;16.058;2023-02-19T06:26:49;97287.53;;;9.98;100.00
49515;BME280;35415;47.870;16.058;2023-02-19T06:29:16;97305.88;;;10.16;100.00
49515;BME280;35415;47.870;16.058;2023-02-19T06:31:46;97310.16;;;10.17;100.00
49515;BME280;35415;47.870;16.058;2023-02-19T06:34:14;97263.59;;;9.91;100.00
49515;BME280;35415;47.870;16.058;2023-02-19T06:36:41;97272.19;;;9.93;100.00
49515;BME280;35415;47.870;16.058;2023-02-19T06:39:11;97226.69;;;9.66;100.00
49515;BME280;35415;47.870;16.058;2023-02-19T06:41:38;97258.97;;;9.81;100.00
49515;BME280;35415;47.870;16.058;2023-02-19T06:44:06;97243.34;;;9.73;100.00
49515;BME280;35415;47.870;16.058;2023-02-19T06:46:34;97301.81;;;10.08;100.00
49515;BME280;35415;47.870;16.058;2023-02-19T07:04:05;97303.66;;;9.98;99.97
49515;BME280;35415;47.870;16.058;2023-02-19T07:06:33;97287.47;;;9.87;100.00
49515;BME280;35415;47.870;16.058;2023-02-19T07:11:58;97335.09;;;10.02;100.00
49515;BME280;35415;47.870;16.058;2023-02-19T07:14:26;97305.72;;;9.85;99.43
49515;BME280;35415;47.870;16.058;2023-02-19T07:16:54;97325.66;;;9.94;99.78
49515;BME280;35415;47.870;16.058;2023-02-19T07:25:28;97339.41;;;10.03;100.00
49515;BME280;35415;47.870;16.058;2023-02-19T07:33:58;97342.88;;;9.99;100.00
49515;BME280;35415;47.870;16.058;2023-02-19T07:42:29;97332.41;;;9.97;100.00
49515;BME280;35415;47.870;16.058;2023-02-19T07:44:57;97350.66;;;9.95;100.00
49515;BME280;35415;47.870;16.058;2023-02-19T07:47:24;97335.06;;;9.92;100.00
49515;BME280;35415;47.870;16.058;2023-02-19T07:49:51;97346.91;;;9.96;100.00
49515;BME280;35415;47.870;16.058;2023-02-19T08:03:51;97317.78;;;9.78;100.00
49515;BME280;35415;47.870;16.058;2023-02-19T08:09:16;97368.47;;;10.11;99.68
49515;BME280;35415;47.870;16.058;2023-02-19T08:11:44;97312.69;;;9.76;99.84
49515;BME280;35415;47.870;16.058;2023-02-19T08:14:28;97338.28;;;9.94;99.27
49515;BME280;35415;47.870;16.058;2023-02-19T08:16:55;97363.41;;;10.20;99.19
49515;BME280;35415;47.870;16.058;2023-02-19T08:19:24;97372.56;;;10.24;98.42
49515;BME280;35415;47.870;16.058;2023-02-19T08:21:51;97370.97;;;10.23;97.86
49515;BME280;35415;47.870;16.058;2023-02-19T08:24:21;97360.69;;;10.15;98.08
49515;BME280;35415;47.870;16.058;2023-02-19T08:26:48;97378.78;;;10.24;98.14
49515;BME280;35415;47.870;16.058;2023-02-19T08:29:15;97381.50;;;10.30;97.67
49515;BME280;35415;47.870;16.058;2023-02-19T08:31:42;97383.09;;;10.31;97.45
49515;BME280;35415;47.870;16.058;2023-02-19T08:34:09;97378.25;;;10.28;98.05
49515;BME280;35415;47.870;16.058;2023-02-19T08:36:38;97386.88;;;10.30;98.61
49515;BME280;35415;47.870;16.058;2023-02-19T08:39:05;97384.16;;;10.24;99.49
49515;BME280;35415;47.870;16.058;2023-02-19T08:41:32;97369.88;;;10.24;99.03
49515;BME280;35415;47.870;16.058;2023-02-19T08:43:58;97363.41;;;10.20;99.91
49515;BME280;35415;47.870;16.058;2023-02-19T08:46:26;97342.94;;;10.09;100.00
49515;BME280;35415;47.870;16.058;2023-02-19T08:48:53;97365.53;;;10.18;100.00
49515;BME280;35415;47.870;16.058;2023-02-19T08:51:20;97359.88;;;10.09;100.00
49515;BME280;35415;47.870;16.058;2023-02-19T08:53:48;97364.47;;;10.19;100.00
49515;BME280;35415;47.870;16.058;2023-02-19T08:56:16;97346.69;;;10.08;100.00
49515;BME280;35415;47.870;16.058;2023-02-19T08:58:43;97331.84;;;9.95;100.00
49515;BME280;35415;47.870;16.058;2023-02-19T09:01:13;97304.09;;;9.74;99.83
49515;BME280;35415;47.870;16.058;2023-02-19T09:03:43;97359.28;;;10.07;99.18
49515;BME280;35415;47.870;16.058;2023-02-19T09:06:14;97299.22;;;9.71;98.74
49515;BME280;35415;47.870;16.058;2023-02-19T09:08:41;97304.66;;;9.81;98.02
49515;BME280;35415;47.870;16.058;2023-02-19T09:11:11;97280.94;;;9.68;97.97
49515;BME280;35415;47.870;16.058;2023-02-19T09:13:38;97341.06;;;10.09;95.59
49515;BME280;35415;47.870;16.058;2023-02-19T09:16:08;97348.38;;;10.24;96.07
49515;BME280;35415;47.870;16.058;2023-02-19T09:18:35;97348.38;;;10.24;94.65
49515;BME280;35415;47.870;16.058;2023-02-19T09:21:04;97336.59;;;10.30;95.39
49515;BME280;35415;47.870;16.058;2023-02-19T09:26:29;97351.44;;;10.43;93.40
49515;BME280;35415;47.870;16.058;2023-02-19T09:31:57;97351.97;;;10.55;93.59
49515;BME280;35415;47.870;16.058;2023-02-19T09:34:25;97314.56;;;10.38;94.98
49515;BME280;35415;47.870;16.058;2023-02-19T09:42:56;97348.81;;;10.78;92.08
49515;BME280;35415;47.870;16.058;2023-02-19T10:03:45;97335.94;;;11.01;91.61
49515;BME280;35415;47.870;16.058;2023-02-19T10:15:35;97367.13;;;10.87;91.28
49515;BME280;35415;47.870;16.058;2023-02-19T10:18:04;97350.94;;;10.66;92.44
49515;BME280;35415;47.870;16.058;2023-02-19T10:20:33;97397.81;;;10.85;92.89
49515;BME280;35415;47.870;16.058;2023-02-19T10:23:02;97390.00;;;10.79;93.08
49515;BME280;35415;47.870;16.058;2023-02-19T10:25:30;97385.66;;;10.73;94.22
49515;BME280;35415;47.870;16.058;2023-02-19T10:27:58;97400.19;;;10.72;93.61
49515;BME280;35415;47.870;16.058;2023-02-19T10:30:28;97406.38;;;10.67;91.69
49515;BME280;35415;47.870;16.058;2023-02-19T10:33:01;97387.78;;;10.61;91.51
49515;BME280;35415;47.870;16.058;2023-02-19T10:35:29;97390.16;;;10.52;92.88
49515;BME280;35415;47.870;16.058;2023-02-19T10:37:58;97392.56;;;10.43;93.97
49515;BME280;35415;47.870;16.058;2023-02-19T10:40:26;97405.16;;;10.38;94.05
49515;BME280;35415;47.870;16.058;2023-02-19T10:42:55;97403.28;;;10.33;94.54
49515;BME280;35415;47.870;16.058;2023-02-19T10:45:26;97405.69;;;10.30;95.41
49515;BME280;35415;47.870;16.058;2023-02-19T10:47:55;97395.47;;;10.27;94.08
49515;BME280;35415;47.870;16.058;2023-02-19T10:50:25;97380.94;;;10.28;93.27
49515;BME280;35415;47.870;16.058;2023-02-19T10:52:55;97401.09;;;10.25;92.71
49515;BME280;35415;47.870;16.058;2023-02-19T10:55:30;97384.97;;;10.25;92.50
49515;BME280;35415;47.870;16.058;2023-02-19T10:57:57;97373.03;;;10.11;92.72
49515;BME280;35415;47.870;16.058;2023-02-19T11:00:40;97371.16;;;10.11;93.46
49515;BME280;35415;47.870;16.058;2023-02-19T11:03:19;97397.78;;;10.18;92.61
49515;BME280;35415;47.870;16.058;2023-02-19T11:21:23;97418.50;;;10.17;88.99
49515;BME280;35415;47.870;16.058;2023-02-19T11:27:05;97414.72;;;10.13;88.75
49515;BME280;35415;47.870;16.058;2023-02-19T11:29:33;97408.78;;;10.11;88.32
49515;BME280;35415;47.870;16.058;2023-02-19T11:35:23;97391.06;;;10.10;88.46
49515;BME280;35415;47.870;16.058;2023-02-19T11:58:39;97368.38;;;10.48;85.97
49515;BME280;35415;47.870;16.058;2023-02-19T12:38:21;97344.00;;;11.36;76.47
49515;BME280;35415;47.870;16.058;2023-02-19T12:41:13;97322.22;;;11.12;76.22
49515;BME280;35415;47.870;16.058;2023-02-19T12:44:11;97367.97;;;11.38;77.88
49515;BME280;35415;47.870;16.058;2023-02-19T12:46:47;97379.56;;;11.49;76.20
49515;BME280;35415;47.870;16.058;2023-02-19T12:52:23;97280.75;;;11.19;76.79
49515;BME280;35415;47.870;16.058;2023-02-19T12:54:53;97330.00;;;11.44;77.17
49515;BME280;35415;47.870;16.058;2023-02-19T12:57:25;97318.72;;;11.27;77.14
49515;BME280;35415;47.870;16.058;2023-02-19T12:59:58;97302.28;;;11.29;76.67
49515;BME280;35415;47.870;16.058;2023-02-19T13:02:33;97285.88;;;11.15;75.61
49515;BME280;35415;47.870;16.058;2023-02-19T13:05:09;97299.56;;;11.34;76.21
49515;BME280;35415;47.870;16.058;2023-02-19T13:07:47;97333.50;;;11.60;75.30
49515;BME280;35415;47.870;16.058;2023-02-19T13:10:24;97313.03;;;11.59;76.53
49515;BME280;35415;47.870;16.058;2023-02-19T13:13:04;97345.59;;;11.78;75.82
49515;BME280;35415;47.870;16.058;2023-02-19T13:24:53;97371.94;;;12.12;71.79
49515;BME280;35415;47.870;16.058;2023-02-19T13:27:37;97317.78;;;11.98;71.56
49515;BME280;35415;47.870;16.058;2023-02-19T13:30:23;97302.16;;;11.90;71.47
49515;BME280;35415;47.870;16.058;2023-02-19T13:32:59;97350.09;;;12.13;71.24
49515;BME280;35415;47.870;16.058;2023-02-19T13:36:03;97376.53;;;12.11;71.24
49515;BME280;35415;47.870;16.058;2023-02-19T13:38:37;97348.19;;;12.14;71.16
49515;BME280;35415;47.870;16.058;2023-02-19T13:41:14;97364.63;;;12.17;71.14
49515;BME280;35415;47.870;16.058;2023-02-19T13:43:43;97364.91;;;12.16;70.77
49515;BME280;35415;47.870;16.058;2023-02-19T13:46:13;97356.31;;;12.03;70.83
49515;BME280;35415;47.870;16.058;2023-02-19T13:48:43;97377.06;;;12.03;70.56
49515;BME280;35415;47.870;16.058;2023-02-19T13:51:43;97363.56;;;12.08;70.94
49515;BME280;35415;47.870;16.058;2023-02-19T13:54:26;97309.25;;;11.60;71.05
49515;BME280;35415;47.870;16.058;2023-02-19T13:57:26;97375.75;;;12.00;71.42
49515;BME280;35415;47.870;16.058;2023-02-19T13:59:55;97386.78;;;11.99;72.08
49515;BME280;35415;47.870;16.058;2023-02-19T14:02:31;97364.44;;;11.88;71.88
49515;BME280;35415;47.870;16.058;2023-02-19T14:05:02;97353.66;;;11.88;72.37
49515;BME280;35415;47.870;16.058;2023-02-19T14:17:22;97415.66;;;11.68;71.93
49515;BME280;35415;47.870;16.058;2023-02-19T14:31:36;97412.69;;;11.49;70.38
49515;BME280;35415;47.870;16.058;2023-02-19T14:40:24;97404.31;;;11.20;70.36
49515;BME280;35415;47.870;16.058;2023-02-19T14:45:55;97414.25;;;11.04;71.54
49515;BME280;35415;47.870;16.058;2023-02-19T14:51:29;97392.38;;;10.70;73.19
49515;BME280;35415;47.870;16.058;2023-02-19T15:03:34;97482.31;;;10.90;75.64
49515;BME280;35415;47.870;16.058;2023-02-19T15:09:05;97425.91;;;10.42;78.81
49515;BME280;35415;47.870;16.058;2023-02-19T15:20:25;97471.59;;;10.37;81.46
49515;BME280;35415;47.870;16.058;2023-02-19T15:22:59;97430.31;;;10.16;82.04
49515;BME280;35415;47.870;16.058;2023-02-19T15:40:56;97488.75;;;9.94;83.88
49515;BME280;35415;47.870;16.058;2023-02-19T15:43:24;97487.09;;;9.88;84.39
49515;BME280;35415;47.870;16.058;2023-02-19T15:45:56;97491.84;;;9.76;84.96
49515;BME280;35415;47.870;16.058;2023-02-19T15:48:28;97490.16;;;9.70;84.73
49515;BME280;35415;47.870;16.058;2023-02-19T15:51:02;97442.44;;;9.45;85.47
49515;BME280;35415;47.870;16.058;2023-02-19T15:53:35;97501.44;;;9.67;85.08
49515;BME280;35415;47.870;16.058;2023-02-19T15:56:08;97497.41;;;9.69;85.44
49515;BME280;35415;47.870;16.058;2023-02-19T15:59:00;97518.63;;;9.65;86.10
49515;BME280;35415;47.870;16.058;2023-02-19T16:02:01;97501.09;;;9.58;86.19
49515;BME280;35415;47.870;16.058;2023-02-19T16:04:29;97436.69;;;9.04;86.61
49515;BME280;35415;47.870;16.058;2023-02-19T16:07:01;97527.28;;;9.46;87.09
49515;BME280;35415;47.870;16.058;2023-02-19T16:43:26;97478.66;;;8.44;89.53
49515;BME280;35415;47.870;16.058;2023-02-19T16:45:55;97520.56;;;8.72;89.49
49515;BME280;35415;47.870;16.058;2023-02-19T16:48:23;97516.69;;;8.63;89.51
49515;BME280;35415;47.870;16.058;2023-02-19T16:51:00;97568.31;;;8.92;89.32
49515;BME280;35415;47.870;16.058;2023-02-19T16:57:00;97606.16;;;8.96;88.81
49515;BME280;35415;47.870;16.058;2023-02-19T17:02:22;97579.31;;;8.74;88.86
49515;BME280;35415;47.870;16.058;2023-02-19T17:17:00;97634.47;;;8.87;89.72
49515;BME280;35415;47.870;16.058;2023-02-19T17:19:29;97661.53;;;8.85;89.63
49515;BME280;35415;47.870;16.058;2023-02-19T17:21:56;97647.56;;;8.83;89.31
49515;BME280;35415;47.870;16.058;2023-02-19T17:24:24;97582.53;;;8.37;89.68
49515;BME280;35415;47.870;16.058;2023-02-19T17:26:52;97651.97;;;8.72;89.40
49515;BME280;35415;47.870;16.058;2023-02-19T17:29:19;97617.72;;;8.41;89.89
49515;BME280;35415;47.870;16.058;2023-02-19T17:31:49;97659.44;;;8.70;90.65
49515;BME280;35415;47.870;16.058;2023-02-19T17:34:17;97715.84;;;8.92;90.75
49515;BME280;35415;47.870;16.058;2023-02-19T17:36:47;97633.31;;;8.44;91.83
49515;BME280;35415;47.870;16.058;2023-02-19T17:39:14;97720.06;;;8.88;92.14
49515;BME280;35415;47.870;16.058;2023-02-19T17:41:42;97701.78;;;8.68;93.26
49515;BME280;35415;47.870;16.058;2023-02-19T17:55:54;97715.13;;;8.63;93.84
49515;BME280;35415;47.870;16.058;2023-02-19T18:01:24;97723.72;;;8.49;95.01
49515;BME280;35415;47.870;16.058;2023-02-19T18:03:51;97742.16;;;8.45;95.62
49515;BME280;35415;47.870;16.058;2023-02-19T18:06:18;97759.16;;;8.51;95.91
49515;BME280;35415;47.870;16.058;2023-02-19T18:08:47;97752.31;;;8.43;97.43
49515;BME280;35415;47.870;16.058;2023-02-19T18:11:20;97779.22;;;8.48;97.38
49515;BME280;35415;47.870;16.058;2023-02-19T18:13:47;97777.44;;;8.54;95.28
49515;BME280;35415;47.870;16.058;2023-02-19T18:16:15;97799.59;;;8.49;97.43
49515;BME280;35415;47.870;16.058;2023-02-19T18:18:43;97821.28;;;8.48;98.58
49515;BME280;35415;47.870;16.058;2023-02-19T18:21:11;97792.53;;;8.31;99.15
49515;BME280;35415;47.870;16.058;2023-02-19T18:23:39;97828.19;;;8.43;98.49
49515;BME280;35415;47.870;16.058;2023-02-19T18:26:38;97848.03;;;8.42;99.07
49515;BME280;35415;47.870;16.058;2023-02-19T18:29:06;97864.28;;;8.53;97.46
49515;BME280;35415;47.870;16.058;2023-02-19T18:31:38;97853.50;;;8.36;97.97
49515;BME280;35415;47.870;16.058;2023-02-19T18:34:21;97861.25;;;8.49;98.06
49515;BME280;35415;47.870;16.058;2023-02-19T18:36:49;97856.63;;;8.44;96.01
49515;BME280;35415;47.870;16.058;2023-02-19T18:39:16;97857.94;;;8.30;97.04
49515;BME280;35415;47.870;16.058;2023-02-19T18:41:51;97874.69;;;8.37;95.45
49515;BME280;35415;47.870;16.058;2023-02-19T18:44:18;97848.56;;;8.04;96.13
49515;BME280;35415;47.870;16.058;2023-02-19T18:46:46;97876.59;;;8.25;95.09
49515;BME280;35415;47.870;16.058;2023-02-19T18:55:27;97872.56;;;7.99;95.81